North Webster, Indiana
Current Conditions -  °F | °C
As of 10:35 PM on Friday 31 Oct 2014 (Local Time) from KASW Reporting Station
Overcast Overcast  
Wind Chill: 21°   Ceiling: 2800
Heat Index: 32°   Visibility: 10mi
Dew Point: 27°   Wind: 16mph
Humidity: 80%   Direction: 350°N
Pressure: 30.2"   Gusts: 28mph
Location:  41.33°N, 85.7°W
Report Text: KASW 010235Z AUTO 35014G24KT 10SM OVC028 00/M03 A3020 RMK AO2
Loading
Personal Weather Stations






























Interactive Weather Map
Tropical Storm Tracking
New forecast layout! Learn more

10-Day Weather Forecast

Advertisements
Track Severe Weather on mobile